EDG554 KOMA-KSMX
Flight info
| Callsign | EDG554 |
|---|---|
| Flight time | N/A |
| Altitude | 43000 |
| Route | LNK HLC J64 HEC PMD RZS |
| Aircraft | C750/M-SDE3FGHIRWY/LB1 |
Departure
| Time | 2026-05-06 14:50 |
|---|---|
| Airport | Eppley Airfield (KOMA) |
Arrival
| Time | N/A |
|---|---|
| Airport | Santa Maria Public Airport Captain G Allan Hancock Field (KSMX) |
| Time | Latitude | Longitude | Altitude | Speed | Heading |
|---|---|---|---|---|---|
| 2026-05-06 14:45 | 41.30948 | -95.90848 | 987 ft | 0 kts | 120° |
| 2026-05-06 14:46 | 41.30942 | -95.90807 | 989 ft | 7 kts | 94° |
| 2026-05-06 14:47 | 41.30970 | -95.90736 | 991 ft | 9 kts | 39° |
| 2026-05-06 14:47 | 41.31010 | -95.90682 | 989 ft | 0 kts | 50° |
| 2026-05-06 14:48 | 41.31010 | -95.90681 | 988 ft | 1 kts | 63° |
| 2026-05-06 14:48 | 41.30997 | -95.90556 | 984 ft | 17 kts | 109° |
| 2026-05-06 14:49 | 41.30995 | -95.90426 | 983 ft | 3 kts | 54° |
| 2026-05-06 14:49 | 41.31037 | -95.90341 | 985 ft | 18 kts | 65° |
| 2026-05-06 14:49 | 41.30886 | -95.90142 | 979 ft | 73 kts | 143° |
| 2026-05-06 14:49 | 41.30227 | -95.89511 | 1010 ft | 145 kts | 144° |
| 2026-05-06 14:50 | 41.29378 | -95.88695 | 1378 ft | 157 kts | 144° |
| 2026-05-06 14:50 | 41.28337 | -95.88077 | 1815 ft | 176 kts | 172° |
| 2026-05-06 14:50 | 41.27036 | -95.88253 | 2072 ft | 205 kts | 203° |
| 2026-05-06 14:50 | 41.25852 | -95.89442 | 2371 ft | 228 kts | 238° |
| 2026-05-06 14:51 | 41.25093 | -95.91407 | 2803 ft | 250 kts | 248° |
| 2026-05-06 14:51 | 41.24327 | -95.93514 | 3726 ft | 253 kts | 246° |
| 2026-05-06 14:51 | 41.23506 | -95.95589 | 4697 ft | 256 kts | 245° |
| 2026-05-06 14:51 | 41.22667 | -95.97703 | 5588 ft | 260 kts | 246° |
| 2026-05-06 14:52 | 41.21829 | -95.99853 | 6516 ft | 264 kts | 246° |
| 2026-05-06 14:52 | 41.20985 | -96.02025 | 7446 ft | 265 kts | 246° |
| 2026-05-06 14:52 | 41.20132 | -96.04197 | 8480 ft | 265 kts | 247° |
| 2026-05-06 14:52 | 41.19279 | -96.06370 | 9507 ft | 265 kts | 247° |
| 2026-05-06 14:53 | 41.18425 | -96.08551 | 10340 ft | 270 kts | 248° |
| 2026-05-06 14:53 | 41.17526 | -96.10862 | 10496 ft | 295 kts | 247° |
| 2026-05-06 14:53 | 41.16548 | -96.13361 | 10527 ft | 322 kts | 247° |
| 2026-05-06 14:53 | 41.15491 | -96.16024 | 11157 ft | 326 kts | 246° |
| 2026-05-06 14:54 | 41.14436 | -96.18687 | 11899 ft | 327 kts | 246° |
| 2026-05-06 14:54 | 41.13382 | -96.21377 | 12565 ft | 330 kts | 246° |
| 2026-05-06 14:54 | 41.12318 | -96.24086 | 13248 ft | 333 kts | 246° |
| 2026-05-06 14:54 | 41.11238 | -96.26817 | 13913 ft | 335 kts | 246° |
| 2026-05-06 14:55 | 41.10150 | -96.29566 | 14504 ft | 338 kts | 246° |
| 2026-05-06 14:55 | 41.09059 | -96.32330 | 15110 ft | 339 kts | 246° |
| 2026-05-06 14:55 | 41.07959 | -96.35111 | 15717 ft | 341 kts | 246° |
| 2026-05-06 14:55 | 41.06853 | -96.37903 | 16326 ft | 343 kts | 246° |
| 2026-05-06 14:56 | 41.05739 | -96.40710 | 16962 ft | 345 kts | 246° |
| 2026-05-06 14:56 | 41.04617 | -96.43541 | 17593 ft | 348 kts | 246° |
| 2026-05-06 14:56 | 41.03488 | -96.46383 | 18251 ft | 350 kts | 246° |
| 2026-05-06 14:56 | 41.02346 | -96.49252 | 18817 ft | 353 kts | 246° |
| 2026-05-06 14:57 | 41.01201 | -96.52130 | 19486 ft | 353 kts | 245° |
| 2026-05-06 14:57 | 41.00057 | -96.55001 | 20167 ft | 352 kts | 245° |
| 2026-05-06 14:57 | 40.98913 | -96.57869 | 20865 ft | 352 kts | 245° |
| 2026-05-06 14:57 | 40.97769 | -96.60736 | 21531 ft | 352 kts | 245° |
| 2026-05-06 14:58 | 40.96624 | -96.63604 | 22197 ft | 353 kts | 244° |
| 2026-05-06 14:58 | 40.95477 | -96.66471 | 22867 ft | 353 kts | 244° |
| 2026-05-06 14:58 | 40.94325 | -96.69349 | 23513 ft | 354 kts | 244° |
| 2026-05-06 14:58 | 40.93189 | -96.72185 | 24053 ft | 354 kts | 244° |
| 2026-05-06 14:59 | 40.92010 | -96.75044 | 24557 ft | 356 kts | 242° |
| 2026-05-06 14:59 | 40.90721 | -96.77857 | 25006 ft | 358 kts | 241° |
| 2026-05-06 14:59 | 40.89437 | -96.80695 | 25471 ft | 361 kts | 242° |
| 2026-05-06 14:59 | 40.88154 | -96.83552 | 25918 ft | 363 kts | 242° |
| 2026-05-06 15:00 | 40.86850 | -96.86433 | 26329 ft | 367 kts | 241° |
| 2026-05-06 15:00 | 40.85528 | -96.89337 | 26786 ft | 369 kts | 241° |
| 2026-05-06 15:00 | 40.84200 | -96.92259 | 27254 ft | 372 kts | 241° |
| 2026-05-06 15:00 | 40.82869 | -96.95193 | 27708 ft | 374 kts | 241° |
| 2026-05-06 15:01 | 40.81523 | -96.98154 | 28158 ft | 377 kts | 241° |
| 2026-05-06 15:01 | 40.80165 | -97.01133 | 28603 ft | 380 kts | 241° |
| 2026-05-06 15:01 | 40.78800 | -97.04128 | 29062 ft | 382 kts | 241° |
| 2026-05-06 15:01 | 40.77422 | -97.07149 | 29495 ft | 385 kts | 241° |
| 2026-05-06 15:02 | 40.76038 | -97.10180 | 29935 ft | 388 kts | 241° |
| 2026-05-06 15:02 | 40.74660 | -97.13195 | 30338 ft | 390 kts | 241° |
| 2026-05-06 15:02 | 40.73255 | -97.16265 | 30728 ft | 392 kts | 241° |
| 2026-05-06 15:02 | 40.71824 | -97.19389 | 31120 ft | 393 kts | 241° |
| 2026-05-06 15:03 | 40.70432 | -97.22423 | 31695 ft | 390 kts | 241° |
| 2026-05-06 15:03 | 40.69037 | -97.25464 | 32262 ft | 387 kts | 241° |
| 2026-05-06 15:03 | 40.67648 | -97.28488 | 32800 ft | 382 kts | 242° |
| 2026-05-06 15:03 | 40.66291 | -97.31438 | 33530 ft | 373 kts | 242° |
| 2026-05-06 15:04 | 40.64950 | -97.34351 | 34110 ft | 369 kts | 242° |
| 2026-05-06 15:04 | 40.63624 | -97.37231 | 34527 ft | 367 kts | 242° |
| 2026-05-06 15:04 | 40.62301 | -97.40102 | 34842 ft | 368 kts | 242° |
| 2026-05-06 15:04 | 40.60969 | -97.42986 | 35168 ft | 369 kts | 242° |
| 2026-05-06 15:05 | 40.59636 | -97.45870 | 35517 ft | 370 kts | 242° |
| 2026-05-06 15:05 | 40.58295 | -97.48768 | 35895 ft | 370 kts | 242° |
| 2026-05-06 15:05 | 40.56954 | -97.51666 | 36278 ft | 371 kts | 242° |
| 2026-05-06 15:05 | 40.55610 | -97.54568 | 36661 ft | 372 kts | 242° |
| 2026-05-06 15:06 | 40.54262 | -97.57474 | 37054 ft | 373 kts | 242° |
| 2026-05-06 15:06 | 40.52926 | -97.60352 | 37394 ft | 375 kts | 242° |
| 2026-05-06 15:06 | 40.51560 | -97.63292 | 37719 ft | 378 kts | 242° |
| 2026-05-06 15:06 | 40.50190 | -97.66237 | 38142 ft | 378 kts | 242° |
| 2026-05-06 15:07 | 40.48818 | -97.69184 | 38558 ft | 379 kts | 242° |
| 2026-05-06 15:07 | 40.47440 | -97.72140 | 38938 ft | 379 kts | 242° |
| 2026-05-06 15:07 | 40.46061 | -97.75099 | 39241 ft | 381 kts | 242° |
| 2026-05-06 15:07 | 40.44671 | -97.78075 | 39538 ft | 382 kts | 242° |
| 2026-05-06 15:08 | 40.43277 | -97.81058 | 39833 ft | 384 kts | 242° |
| 2026-05-06 15:08 | 40.41877 | -97.84051 | 40140 ft | 385 kts | 242° |
| 2026-05-06 15:08 | 40.40469 | -97.87058 | 40444 ft | 387 kts | 242° |
| 2026-05-06 15:08 | 40.39056 | -97.90073 | 40753 ft | 388 kts | 242° |
| 2026-05-06 15:09 | 40.37636 | -97.93099 | 41050 ft | 390 kts | 242° |
| 2026-05-06 15:09 | 40.36210 | -97.96136 | 41361 ft | 391 kts | 242° |
| 2026-05-06 15:09 | 40.34780 | -97.99178 | 41642 ft | 393 kts | 242° |
| 2026-05-06 15:09 | 40.33342 | -98.02235 | 41931 ft | 395 kts | 242° |
| 2026-05-06 15:10 | 40.31914 | -98.05266 | 42237 ft | 396 kts | 241° |
| 2026-05-06 15:10 | 40.30464 | -98.08342 | 42535 ft | 397 kts | 241° |
| 2026-05-06 15:10 | 40.29007 | -98.11429 | 42827 ft | 398 kts | 241° |
| 2026-05-06 15:10 | 40.27544 | -98.14527 | 43112 ft | 399 kts | 241° |
| 2026-05-06 15:11 | 40.26072 | -98.17641 | 43168 ft | 406 kts | 241° |
| 2026-05-06 15:11 | 40.23040 | -98.24045 | 43185 ft | 421 kts | 241° |
| 2026-05-06 15:12 | 40.19915 | -98.30630 | 43178 ft | 434 kts | 241° |
| 2026-05-06 15:12 | 40.16673 | -98.37447 | 43172 ft | 445 kts | 241° |
| 2026-05-06 15:13 | 40.13369 | -98.44378 | 43186 ft | 453 kts | 241° |
| 2026-05-06 15:13 | 40.10001 | -98.51427 | 43189 ft | 459 kts | 241° |
| 2026-05-06 15:14 | 40.06620 | -98.58489 | 43186 ft | 463 kts | 240° |
| 2026-05-06 15:14 | 40.03194 | -98.65628 | 43184 ft | 464 kts | 240° |
| 2026-05-06 15:15 | 39.99761 | -98.72764 | 43191 ft | 465 kts | 240° |
| 2026-05-06 15:15 | 39.96316 | -98.79911 | 43186 ft | 465 kts | 240° |
| 2026-05-06 15:16 | 39.92868 | -98.87048 | 43186 ft | 465 kts | 240° |
| 2026-05-06 15:16 | 39.89424 | -98.94158 | 43183 ft | 461 kts | 240° |
| 2026-05-06 15:17 | 39.85995 | -99.01225 | 43190 ft | 462 kts | 240° |
| 2026-05-06 15:17 | 39.82554 | -99.08296 | 43195 ft | 462 kts | 240° |
| 2026-05-06 15:18 | 39.79130 | -99.15320 | 43203 ft | 464 kts | 240° |
| 2026-05-06 15:18 | 39.75673 | -99.22393 | 43207 ft | 463 kts | 240° |
| 2026-05-06 15:19 | 39.72211 | -99.29462 | 43205 ft | 463 kts | 240° |
| 2026-05-06 15:19 | 39.68748 | -99.36517 | 43208 ft | 463 kts | 240° |
| 2026-05-06 15:20 | 39.65277 | -99.43574 | 43203 ft | 463 kts | 240° |
| 2026-05-06 15:20 | 39.61815 | -99.50594 | 43199 ft | 460 kts | 240° |
| 2026-05-06 15:21 | 39.58356 | -99.57598 | 43203 ft | 461 kts | 240° |
| 2026-05-06 15:21 | 39.54886 | -99.64603 | 43204 ft | 462 kts | 240° |
| 2026-05-06 15:22 | 39.51416 | -99.71595 | 43206 ft | 462 kts | 240° |
| 2026-05-06 15:22 | 39.47937 | -99.78589 | 43198 ft | 462 kts | 240° |
| 2026-05-06 15:23 | 39.44452 | -99.85578 | 43208 ft | 462 kts | 239° |
| 2026-05-06 15:23 | 39.40977 | -99.92533 | 43209 ft | 463 kts | 239° |
| 2026-05-06 15:24 | 39.37472 | -99.99533 | 43183 ft | 463 kts | 239° |
| 2026-05-06 15:24 | 39.33998 | -100.06457 | 43202 ft | 458 kts | 239° |
| 2026-05-06 15:25 | 39.30526 | -100.13366 | 43214 ft | 459 kts | 239° |
| 2026-05-06 15:25 | 39.27120 | -100.20340 | 43204 ft | 458 kts | 244° |
| 2026-05-06 15:26 | 39.24756 | -100.27950 | 43208 ft | 457 kts | 255° |
| 2026-05-06 15:26 | 39.23101 | -100.35879 | 43223 ft | 458 kts | 255° |
| 2026-05-06 15:27 | 39.21436 | -100.43748 | 43221 ft | 458 kts | 255° |
| 2026-05-06 15:27 | 39.19771 | -100.51669 | 43219 ft | 458 kts | 255° |
| 2026-05-06 15:28 | 39.18090 | -100.59585 | 43210 ft | 458 kts | 255° |
| 2026-05-06 15:28 | 39.16407 | -100.67519 | 43199 ft | 459 kts | 255° |
| 2026-05-06 15:29 | 39.14713 | -100.75448 | 43198 ft | 459 kts | 255° |
| 2026-05-06 15:29 | 39.13014 | -100.83384 | 43197 ft | 459 kts | 255° |
| 2026-05-06 15:30 | 39.11310 | -100.91310 | 43196 ft | 459 kts | 255° |
| 2026-05-06 15:30 | 39.09599 | -100.99241 | 43199 ft | 459 kts | 255° |
| 2026-05-06 15:31 | 39.07885 | -101.07160 | 43204 ft | 459 kts | 255° |
| 2026-05-06 15:31 | 39.06175 | -101.15031 | 43212 ft | 460 kts | 255° |
| 2026-05-06 15:32 | 39.03586 | -101.26892 | 43220 ft | 459 kts | 255° |
| 2026-05-06 15:32 | 39.01860 | -101.34769 | 43211 ft | 456 kts | 254° |
| 2026-05-06 15:33 | 39.00131 | -101.42627 | 43209 ft | 457 kts | 254° |
| 2026-05-06 15:33 | 38.98393 | -101.50498 | 43211 ft | 458 kts | 254° |
| 2026-05-06 15:34 | 38.96649 | -101.58368 | 43213 ft | 458 kts | 254° |
| 2026-05-06 15:34 | 38.94898 | -101.66241 | 43210 ft | 458 kts | 254° |
| 2026-05-06 15:35 | 38.93141 | -101.74116 | 43210 ft | 459 kts | 254° |
| 2026-05-06 15:35 | 38.91674 | -101.80673 | 43204 ft | 459 kts | 254° |
| 2026-05-06 15:36 | 38.89901 | -101.88564 | 43204 ft | 460 kts | 254° |
| 2026-05-06 15:36 | 38.88122 | -101.96458 | 43202 ft | 460 kts | 254° |
| 2026-05-06 15:37 | 38.86378 | -102.04173 | 43205 ft | 460 kts | 254° |
| 2026-05-06 15:37 | 38.84584 | -102.12077 | 43196 ft | 462 kts | 254° |
| 2026-05-06 15:38 | 38.82781 | -102.19998 | 43190 ft | 462 kts | 254° |
| 2026-05-06 15:38 | 38.80974 | -102.27904 | 43189 ft | 462 kts | 254° |
| 2026-05-06 15:39 | 38.79173 | -102.35763 | 43179 ft | 462 kts | 254° |
| 2026-05-06 15:39 | 38.77355 | -102.43662 | 43171 ft | 463 kts | 254° |
| 2026-05-06 15:40 | 38.75527 | -102.51581 | 43165 ft | 463 kts | 254° |
| 2026-05-06 15:40 | 38.73695 | -102.59491 | 43165 ft | 463 kts | 253° |
| 2026-05-06 15:41 | 38.71856 | -102.67404 | 43156 ft | 463 kts | 253° |
| 2026-05-06 15:41 | 38.70012 | -102.75310 | 43157 ft | 463 kts | 253° |
| 2026-05-06 15:42 | 38.68160 | -102.83219 | 43150 ft | 465 kts | 253° |
| 2026-05-06 15:42 | 38.66298 | -102.91152 | 43150 ft | 465 kts | 253° |
| 2026-05-06 15:43 | 38.64429 | -102.99083 | 43150 ft | 466 kts | 253° |
| 2026-05-06 15:43 | 38.62566 | -103.06966 | 43144 ft | 466 kts | 253° |
| 2026-05-06 15:44 | 38.60684 | -103.14898 | 43115 ft | 466 kts | 253° |
| 2026-05-06 15:44 | 38.58811 | -103.22769 | 43149 ft | 463 kts | 253° |
| 2026-05-06 15:45 | 38.56928 | -103.30653 | 43148 ft | 464 kts | 253° |
| 2026-05-06 15:45 | 38.55037 | -103.38546 | 43153 ft | 465 kts | 253° |
| 2026-05-06 15:46 | 38.53138 | -103.46443 | 43149 ft | 465 kts | 253° |
| 2026-05-06 15:46 | 38.51235 | -103.54333 | 43151 ft | 466 kts | 253° |
| 2026-05-06 15:47 | 38.49320 | -103.62246 | 43152 ft | 467 kts | 253° |
| 2026-05-06 15:47 | 38.47397 | -103.70169 | 43162 ft | 467 kts | 253° |
| 2026-05-06 15:48 | 38.45466 | -103.78091 | 43163 ft | 467 kts | 253° |
| 2026-05-06 15:48 | 38.43534 | -103.85998 | 43167 ft | 467 kts | 253° |
| 2026-05-06 15:49 | 38.41589 | -103.93926 | 43171 ft | 469 kts | 253° |
| 2026-05-06 15:49 | 38.39637 | -104.01865 | 43172 ft | 469 kts | 253° |
| 2026-05-06 15:50 | 38.37687 | -104.09761 | 43179 ft | 469 kts | 253° |
| 2026-05-06 15:50 | 38.35722 | -104.17700 | 43172 ft | 469 kts | 253° |
| 2026-05-06 15:51 | 38.33750 | -104.25632 | 43164 ft | 471 kts | 253° |
| 2026-05-06 15:51 | 38.31771 | -104.33580 | 43151 ft | 470 kts | 253° |
| 2026-05-06 15:52 | 38.29770 | -104.41517 | 43141 ft | 471 kts | 252° |
| 2026-05-06 15:52 | 38.26980 | -104.49076 | 43159 ft | 473 kts | 245° |
| 2026-05-06 15:53 | 38.24013 | -104.56552 | 43166 ft | 473 kts | 245° |
| 2026-05-06 15:53 | 38.21023 | -104.64022 | 43167 ft | 473 kts | 245° |
| 2026-05-06 15:54 | 38.18050 | -104.71448 | 43162 ft | 468 kts | 245° |
| 2026-05-06 15:54 | 38.15103 | -104.78793 | 43175 ft | 470 kts | 245° |
| 2026-05-06 15:55 | 38.12125 | -104.86191 | 43174 ft | 470 kts | 245° |
| 2026-05-06 15:55 | 38.09146 | -104.93579 | 43158 ft | 470 kts | 244° |
| 2026-05-06 15:56 | 38.06154 | -105.00977 | 43177 ft | 472 kts | 245° |
| 2026-05-06 15:56 | 38.03151 | -105.08391 | 43147 ft | 472 kts | 244° |
| 2026-05-06 15:57 | 38.00162 | -105.15744 | 43148 ft | 472 kts | 244° |
| 2026-05-06 15:57 | 37.97146 | -105.23156 | 43116 ft | 472 kts | 244° |
| 2026-05-06 15:58 | 37.94126 | -105.30554 | 43109 ft | 473 kts | 244° |
| 2026-05-06 15:58 | 37.91091 | -105.37972 | 43050 ft | 475 kts | 244° |
| 2026-05-06 15:59 | 37.88047 | -105.45394 | 43047 ft | 474 kts | 244° |
| 2026-05-06 15:59 | 37.85018 | -105.52766 | 43006 ft | 470 kts | 244° |
| 2026-05-06 16:00 | 37.81993 | -105.60108 | 43005 ft | 471 kts | 244° |
| 2026-05-06 16:00 | 37.78947 | -105.67484 | 42951 ft | 474 kts | 244° |
| 2026-05-06 16:01 | 37.75883 | -105.74886 | 42939 ft | 476 kts | 244° |
| 2026-05-06 16:01 | 37.72805 | -105.82306 | 42928 ft | 477 kts | 244° |
| 2026-05-06 16:02 | 37.69719 | -105.89723 | 42939 ft | 477 kts | 244° |
| 2026-05-06 16:02 | 37.66651 | -105.97085 | 42921 ft | 477 kts | 244° |
| 2026-05-06 16:03 | 37.63555 | -106.04494 | 42920 ft | 478 kts | 244° |
| 2026-05-06 16:03 | 37.60446 | -106.11921 | 42935 ft | 479 kts | 244° |
| 2026-05-06 16:04 | 37.57330 | -106.19343 | 42944 ft | 479 kts | 244° |
| 2026-05-06 16:04 | 37.54209 | -106.26762 | 42948 ft | 479 kts | 244° |
| 2026-05-06 16:05 | 37.51081 | -106.34179 | 42929 ft | 479 kts | 244° |
| 2026-05-06 16:05 | 37.47971 | -106.41534 | 42930 ft | 473 kts | 244° |
| 2026-05-06 16:06 | 37.44872 | -106.48857 | 42912 ft | 474 kts | 244° |
| 2026-05-06 16:06 | 37.41759 | -106.56182 | 42903 ft | 475 kts | 244° |
| 2026-05-06 16:07 | 37.38645 | -106.63501 | 42918 ft | 475 kts | 244° |
| 2026-05-06 16:07 | 37.35527 | -106.70811 | 42907 ft | 474 kts | 244° |
| 2026-05-06 16:08 | 37.32389 | -106.78148 | 42951 ft | 475 kts | 244° |
| 2026-05-06 16:08 | 37.29245 | -106.85487 | 42938 ft | 478 kts | 244° |
| 2026-05-06 16:09 | 37.27665 | -106.89166 | 43066 ft | 479 kts | 244° |
| 2026-05-06 16:09 | 37.26085 | -106.92844 | 43082 ft | 479 kts | 244° |
| 2026-05-06 16:09 | 37.24504 | -106.96517 | 42944 ft | 479 kts | 244° |
| 2026-05-06 16:09 | 37.22921 | -107.00194 | 42954 ft | 479 kts | 243° |
| 2026-05-06 16:10 | 37.19769 | -107.07498 | 42943 ft | 480 kts | 244° |
| 2026-05-06 16:10 | 37.16579 | -107.14874 | 42943 ft | 481 kts | 244° |
| 2026-05-06 16:11 | 37.13389 | -107.22238 | 42936 ft | 481 kts | 243° |
| 2026-05-06 16:11 | 37.10187 | -107.29606 | 42937 ft | 481 kts | 243° |
| 2026-05-06 16:12 | 37.06990 | -107.36951 | 42954 ft | 481 kts | 243° |
| 2026-05-06 16:12 | 37.03775 | -107.44318 | 42965 ft | 482 kts | 244° |
| 2026-05-06 16:13 | 37.00554 | -107.51685 | 42982 ft | 483 kts | 243° |
| 2026-05-06 16:13 | 36.97318 | -107.59065 | 42990 ft | 483 kts | 243° |
| 2026-05-06 16:14 | 36.94085 | -107.66426 | 42987 ft | 483 kts | 243° |
| 2026-05-06 16:14 | 36.90849 | -107.73774 | 42979 ft | 483 kts | 243° |
| 2026-05-06 16:15 | 36.87606 | -107.81123 | 42967 ft | 484 kts | 243° |
| 2026-05-06 16:15 | 36.84372 | -107.88436 | 42963 ft | 484 kts | 243° |
| 2026-05-06 16:16 | 36.81107 | -107.95799 | 42993 ft | 485 kts | 243° |
| 2026-05-06 16:16 | 36.77854 | -108.03122 | 43020 ft | 482 kts | 243° |
| 2026-05-06 16:17 | 36.74902 | -108.10613 | 43038 ft | 480 kts | 251° |
| 2026-05-06 16:17 | 36.73241 | -108.18660 | 43052 ft | 479 kts | 258° |
| 2026-05-06 16:18 | 36.71737 | -108.26752 | 43057 ft | 479 kts | 258° |
| 2026-05-06 16:18 | 36.70246 | -108.34851 | 43050 ft | 479 kts | 258° |
| 2026-05-06 16:19 | 36.68742 | -108.42936 | 43021 ft | 479 kts | 258° |
| 2026-05-06 16:19 | 36.67491 | -108.49656 | 42996 ft | 478 kts | 258° |
| 2026-05-06 16:20 | 36.65979 | -108.57735 | 42954 ft | 479 kts | 257° |
| 2026-05-06 16:20 | 36.64463 | -108.65810 | 42922 ft | 479 kts | 257° |
| 2026-05-06 16:21 | 36.62938 | -108.73899 | 42896 ft | 479 kts | 257° |
| 2026-05-06 16:21 | 36.61409 | -108.81974 | 42893 ft | 480 kts | 257° |
| 2026-05-06 16:22 | 36.59869 | -108.90084 | 42889 ft | 481 kts | 257° |
| 2026-05-06 16:22 | 36.58334 | -108.98128 | 42890 ft | 481 kts | 257° |
| 2026-05-06 16:23 | 36.56781 | -109.06234 | 42904 ft | 481 kts | 257° |
| 2026-05-06 16:23 | 36.55224 | -109.14332 | 42909 ft | 482 kts | 257° |
| 2026-05-06 16:24 | 36.53658 | -109.22446 | 42913 ft | 482 kts | 257° |
| 2026-05-06 16:24 | 36.52081 | -109.30577 | 42933 ft | 483 kts | 257° |
| 2026-05-06 16:25 | 36.50512 | -109.38642 | 42932 ft | 483 kts | 257° |
| 2026-05-06 16:25 | 36.48929 | -109.46747 | 42919 ft | 483 kts | 257° |
| 2026-05-06 16:26 | 36.47335 | -109.54878 | 42923 ft | 484 kts | 257° |
| 2026-05-06 16:26 | 36.45735 | -109.63007 | 42924 ft | 485 kts | 257° |
| 2026-05-06 16:27 | 36.44128 | -109.71140 | 42922 ft | 484 kts | 257° |
| 2026-05-06 16:27 | 36.42514 | -109.79273 | 42924 ft | 484 kts | 257° |
| 2026-05-06 16:28 | 36.40907 | -109.87350 | 42916 ft | 485 kts | 257° |
| 2026-05-06 16:28 | 36.39281 | -109.95482 | 42925 ft | 484 kts | 257° |
| 2026-05-06 16:29 | 36.37654 | -110.03592 | 42926 ft | 485 kts | 257° |
| 2026-05-06 16:29 | 36.36019 | -110.11711 | 42937 ft | 485 kts | 257° |
| 2026-05-06 16:30 | 36.34654 | -110.18464 | 42949 ft | 486 kts | 257° |
| 2026-05-06 16:30 | 36.32725 | -110.27976 | 42956 ft | 486 kts | 257° |
| 2026-05-06 16:31 | 36.31067 | -110.36111 | 42963 ft | 487 kts | 257° |
| 2026-05-06 16:31 | 36.29405 | -110.44244 | 42961 ft | 486 kts | 257° |
| 2026-05-06 16:32 | 36.27731 | -110.52391 | 42968 ft | 488 kts | 257° |
| 2026-05-06 16:32 | 36.26053 | -110.60539 | 42964 ft | 488 kts | 257° |
| 2026-05-06 16:33 | 36.24379 | -110.68632 | 42972 ft | 488 kts | 257° |
| 2026-05-06 16:34 | 36.21874 | -110.80675 | 42961 ft | 472 kts | 257° |
| 2026-05-06 16:34 | 36.20226 | -110.88591 | 42965 ft | 475 kts | 257° |
| 2026-05-06 16:35 | 36.18574 | -110.96476 | 42963 ft | 476 kts | 257° |
| 2026-05-06 16:35 | 36.16906 | -111.04417 | 42964 ft | 477 kts | 256° |
| 2026-05-06 16:36 | 36.15229 | -111.12363 | 42966 ft | 477 kts | 256° |
| 2026-05-06 16:36 | 36.13545 | -111.20318 | 42968 ft | 478 kts | 256° |
| 2026-05-06 16:37 | 36.11856 | -111.28275 | 42967 ft | 478 kts | 256° |
| 2026-05-06 16:37 | 36.10206 | -111.36246 | 42971 ft | 478 kts | 257° |
| 2026-05-06 16:38 | 36.08541 | -111.44207 | 42974 ft | 478 kts | 256° |
| 2026-05-06 16:38 | 36.06874 | -111.52165 | 42970 ft | 478 kts | 257° |
| 2026-05-06 16:39 | 36.05202 | -111.60117 | 42981 ft | 478 kts | 256° |
| 2026-05-06 16:39 | 36.03522 | -111.68075 | 42982 ft | 478 kts | 256° |
| 2026-05-06 16:40 | 36.01849 | -111.75970 | 43017 ft | 479 kts | 256° |
| 2026-05-06 16:40 | 36.00157 | -111.83936 | 43063 ft | 482 kts | 256° |
| 2026-05-06 16:41 | 35.98446 | -111.91956 | 43107 ft | 483 kts | 256° |
| 2026-05-06 16:41 | 35.96730 | -111.99976 | 43150 ft | 483 kts | 256° |
| 2026-05-06 16:42 | 35.95005 | -112.08004 | 43167 ft | 483 kts | 256° |
| 2026-05-06 16:42 | 35.93276 | -112.16026 | 43163 ft | 485 kts | 256° |
| 2026-05-06 16:43 | 35.91537 | -112.24066 | 43161 ft | 485 kts | 256° |
| 2026-05-06 16:43 | 35.89803 | -112.32053 | 43130 ft | 485 kts | 256° |
| 2026-05-06 16:44 | 35.88053 | -112.40087 | 43106 ft | 485 kts | 256° |
| 2026-05-06 16:44 | 35.86296 | -112.48120 | 43077 ft | 486 kts | 256° |
| 2026-05-06 16:45 | 35.84522 | -112.56207 | 43038 ft | 488 kts | 256° |
| 2026-05-06 16:45 | 35.82748 | -112.64270 | 43027 ft | 488 kts | 256° |
| 2026-05-06 16:46 | 35.80966 | -112.72333 | 43025 ft | 488 kts | 256° |
| 2026-05-06 16:46 | 35.79191 | -112.80342 | 43025 ft | 489 kts | 256° |
| 2026-05-06 16:47 | 35.77387 | -112.88448 | 43023 ft | 490 kts | 256° |
| 2026-05-06 16:47 | 35.75576 | -112.96564 | 43023 ft | 491 kts | 256° |
| 2026-05-06 16:48 | 35.73760 | -113.04672 | 43024 ft | 491 kts | 256° |
| 2026-05-06 16:48 | 35.71940 | -113.12768 | 43010 ft | 492 kts | 256° |
| 2026-05-06 16:49 | 35.70105 | -113.20908 | 43007 ft | 493 kts | 256° |
| 2026-05-06 16:49 | 35.68266 | -113.29032 | 42997 ft | 493 kts | 256° |
| 2026-05-06 16:50 | 35.66433 | -113.37105 | 43001 ft | 493 kts | 256° |
| 2026-05-06 16:50 | 35.64582 | -113.45229 | 42998 ft | 494 kts | 256° |
| 2026-05-06 16:51 | 35.62717 | -113.53380 | 42994 ft | 496 kts | 256° |
| 2026-05-06 16:51 | 35.60589 | -113.61455 | 42988 ft | 496 kts | 253° |
| 2026-05-06 16:52 | 35.58416 | -113.69515 | 42982 ft | 497 kts | 253° |
| 2026-05-06 16:52 | 35.56240 | -113.77571 | 42997 ft | 498 kts | 253° |
| 2026-05-06 16:53 | 35.54046 | -113.85654 | 43012 ft | 499 kts | 253° |
| 2026-05-06 16:53 | 35.51849 | -113.93739 | 43025 ft | 499 kts | 253° |
| 2026-05-06 16:54 | 35.49642 | -114.01822 | 43039 ft | 500 kts | 253° |
| 2026-05-06 16:54 | 35.47444 | -114.09856 | 43028 ft | 501 kts | 253° |
| 2026-05-06 16:55 | 35.45218 | -114.17966 | 43021 ft | 501 kts | 253° |
| 2026-05-06 16:55 | 35.42988 | -114.26070 | 43016 ft | 502 kts | 253° |
| 2026-05-06 16:56 | 35.40746 | -114.34187 | 42999 ft | 502 kts | 253° |
| 2026-05-06 16:56 | 35.38502 | -114.42291 | 43016 ft | 504 kts | 253° |
| 2026-05-06 16:57 | 35.36248 | -114.50403 | 43009 ft | 501 kts | 253° |
| 2026-05-06 16:57 | 35.33999 | -114.58484 | 43018 ft | 501 kts | 253° |
| 2026-05-06 16:58 | 35.31740 | -114.66567 | 43025 ft | 502 kts | 253° |
| 2026-05-06 16:58 | 35.29751 | -114.73668 | 43039 ft | 502 kts | 253° |
| 2026-05-06 16:59 | 35.27479 | -114.81754 | 43046 ft | 502 kts | 252° |
| 2026-05-06 16:59 | 35.25205 | -114.89825 | 43043 ft | 502 kts | 252° |
| 2026-05-06 17:00 | 35.22925 | -114.97895 | 43044 ft | 502 kts | 252° |
| 2026-05-06 17:00 | 35.20648 | -115.05928 | 43054 ft | 504 kts | 252° |
| 2026-05-06 17:01 | 35.18354 | -115.14001 | 43054 ft | 503 kts | 252° |
| 2026-05-06 17:01 | 35.16048 | -115.22090 | 43058 ft | 503 kts | 252° |
| 2026-05-06 17:02 | 35.13740 | -115.30166 | 43069 ft | 503 kts | 252° |
| 2026-05-06 17:02 | 35.11422 | -115.38250 | 43065 ft | 505 kts | 252° |
| 2026-05-06 17:03 | 35.09098 | -115.46336 | 43072 ft | 505 kts | 252° |
| 2026-05-06 17:03 | 35.06764 | -115.54428 | 43083 ft | 505 kts | 252° |
| 2026-05-06 17:04 | 35.04425 | -115.62517 | 43081 ft | 505 kts | 252° |
| 2026-05-06 17:04 | 35.02074 | -115.70620 | 43095 ft | 507 kts | 252° |
| 2026-05-06 17:05 | 35.00117 | -115.77355 | 43095 ft | 507 kts | 252° |
| 2026-05-06 17:05 | 34.97752 | -115.85466 | 43096 ft | 507 kts | 252° |
| 2026-05-06 17:06 | 34.95384 | -115.93565 | 43094 ft | 507 kts | 252° |
| 2026-05-06 17:06 | 34.93001 | -116.01675 | 43083 ft | 508 kts | 252° |
| 2026-05-06 17:07 | 34.90598 | -116.09766 | 43082 ft | 508 kts | 252° |
| 2026-05-06 17:07 | 34.88200 | -116.17861 | 43078 ft | 508 kts | 252° |
| 2026-05-06 17:08 | 34.85789 | -116.25948 | 43060 ft | 508 kts | 252° |
| 2026-05-06 17:08 | 34.83389 | -116.33995 | 43070 ft | 508 kts | 252° |
| 2026-05-06 17:09 | 34.80966 | -116.42085 | 43073 ft | 508 kts | 252° |
| 2026-05-06 17:09 | 34.79223 | -116.50371 | 43090 ft | 504 kts | 264° |
| 2026-05-06 17:10 | 34.78532 | -116.58865 | 43103 ft | 504 kts | 266° |